createdAt,value
2022-12-03T00:00:18.632Z,21.80
2022-12-03T00:02:47.319Z,21.50
2022-12-03T00:05:15.714Z,25.08
2022-12-03T00:07:44.051Z,23.50
2022-12-03T00:10:26.116Z,21.13
2022-12-03T00:12:54.518Z,23.52
2022-12-03T00:15:22.615Z,22.52
2022-12-03T00:17:50.791Z,21.58
2022-12-03T00:20:21.832Z,20.63
2022-12-03T00:22:50.617Z,23.42
2022-12-03T00:25:20.436Z,21.60
2022-12-03T00:27:49.094Z,25.92
2022-12-03T00:30:18.096Z,25.70
2022-12-03T00:32:46.559Z,22.70
2022-12-03T00:35:14.742Z,23.98
2022-12-03T00:37:42.863Z,20.35
2022-12-03T00:40:15.647Z,23.52
2022-12-03T00:42:49.208Z,24.23
2022-12-03T00:45:17.662Z,22.23
2022-12-03T00:47:46.138Z,23.15
2022-12-03T00:50:14.302Z,24.15
2022-12-03T00:52:42.490Z,22.40
2022-12-03T00:55:11.091Z,21.75
2022-12-03T00:57:39.507Z,21.67
2022-12-03T01:00:13.328Z,18.25
2022-12-03T01:02:41.629Z,22.45
2022-12-03T01:05:12.525Z,20.73
2022-12-03T01:07:41.238Z,21.65
2022-12-03T01:10:09.792Z,21.75
2022-12-03T01:12:38.032Z,22.70
2022-12-03T01:15:09.663Z,23.92
2022-12-03T01:17:39.748Z,22.27
2022-12-03T01:20:09.739Z,21.20
2022-12-03T01:22:38.484Z,22.23
2022-12-03T01:25:07.391Z,19.33
2022-12-03T01:27:38.251Z,20.83
2022-12-03T01:30:07.943Z,19.40
2022-12-03T01:32:35.443Z,20.75
2022-12-03T01:35:05.724Z,22.58
2022-12-03T01:37:35.234Z,19.80
2022-12-03T01:40:03.690Z,20.67
2022-12-03T01:42:34.697Z,20.00
2022-12-03T01:45:04.168Z,22.27
2022-12-03T01:47:34.779Z,19.95
2022-12-03T01:50:09.491Z,19.67
2022-12-03T01:52:39.674Z,18.90
2022-12-03T01:55:16.244Z,19.50
2022-12-03T01:57:47.034Z,17.48
2022-12-03T02:00:18.072Z,19.30
2022-12-03T02:02:47.892Z,19.83
2022-12-03T02:05:20.149Z,18.77
2022-12-03T02:07:48.340Z,18.85
2022-12-03T02:10:20.086Z,18.05
2022-12-03T02:12:51.863Z,18.40
2022-12-03T02:15:20.378Z,16.77
2022-12-03T02:17:48.468Z,19.58
2022-12-03T02:20:18.395Z,21.88
2022-12-03T02:22:55.304Z,15.57
2022-12-03T02:25:27.309Z,17.95
2022-12-03T02:27:56.377Z,17.40
2022-12-03T02:30:27.094Z,18.65
2022-12-03T02:32:55.818Z,19.20
2022-12-03T02:35:26.282Z,17.30
2022-12-03T02:37:59.413Z,18.55
2022-12-03T02:40:31.684Z,19.27
2022-12-03T02:43:01.444Z,17.27
2022-12-03T02:45:32.509Z,18.15
2022-12-03T02:48:05.199Z,18.23
2022-12-03T02:50:35.566Z,18.02
2022-12-03T02:53:08.431Z,17.77
2022-12-03T02:55:38.751Z,17.98
2022-12-03T02:58:07.413Z,18.92
2022-12-03T03:00:37.318Z,21.40
2022-12-03T03:03:07.440Z,17.17
2022-12-03T03:05:37.804Z,18.08
2022-12-03T03:08:06.820Z,20.25
2022-12-03T03:10:36.634Z,19.15
2022-12-03T03:13:10.193Z,18.65
2022-12-03T03:15:39.375Z,20.30
2022-12-03T03:18:08.562Z,17.92
2022-12-03T03:20:37.576Z,19.35
2022-12-03T03:23:15.595Z,20.60
2022-12-03T03:25:46.580Z,20.02
2022-12-03T03:28:17.525Z,21.05
2022-12-03T03:30:46.491Z,20.85
2022-12-03T03:33:17.599Z,17.73
2022-12-03T03:35:47.172Z,20.25
2022-12-03T03:38:16.096Z,20.08
2022-12-03T03:40:44.743Z,20.48
2022-12-03T03:43:14.114Z,22.13
2022-12-03T03:45:44.737Z,22.58
2022-12-03T03:48:14.125Z,18.45
2022-12-03T03:50:44.532Z,21.73
2022-12-03T03:53:13.423Z,21.05
2022-12-03T03:55:42.076Z,21.75
2022-12-03T03:58:10.253Z,22.00
2022-12-03T04:00:38.464Z,21.38
2022-12-03T04:03:08.165Z,20.45
2022-12-03T04:05:36.201Z,21.70
2022-12-03T04:08:04.406Z,19.95
2022-12-03T04:10:46.436Z,19.55
2022-12-03T04:13:14.436Z,20.33
2022-12-03T04:15:42.394Z,19.35
2022-12-03T04:18:29.973Z,19.23
2022-12-03T04:21:17.974Z,17.63
2022-12-03T04:23:45.087Z,20.17
2022-12-03T04:26:30.851Z,18.42
2022-12-03T04:28:59.209Z,16.13
2022-12-03T04:31:44.819Z,22.92
2022-12-03T04:34:32.134Z,18.17
2022-12-03T04:37:00.193Z,18.85
2022-12-03T04:39:28.336Z,22.92
2022-12-03T04:41:56.512Z,19.08
2022-12-03T04:44:39.549Z,19.67
2022-12-03T04:47:12.114Z,19.75
2022-12-03T04:49:44.066Z,19.00
2022-12-03T04:52:13.523Z,19.75
2022-12-03T04:54:42.436Z,20.70
2022-12-03T04:57:11.281Z,18.17
2022-12-03T04:59:40.147Z,19.67
2022-12-03T05:02:08.955Z,20.27
2022-12-03T05:04:37.081Z,19.25
2022-12-03T05:07:07.062Z,20.00
2022-12-03T05:09:35.109Z,23.27
2022-12-03T05:12:03.965Z,21.35
2022-12-03T05:14:32.176Z,18.48
2022-12-03T05:17:00.357Z,19.10
2022-12-03T05:19:42.332Z,20.67
2022-12-03T05:22:11.925Z,19.75
2022-12-03T05:24:40.267Z,23.95
2022-12-03T05:27:08.300Z,21.38
2022-12-03T05:29:36.340Z,20.52
2022-12-03T05:32:04.658Z,21.63
2022-12-03T05:34:32.690Z,17.88
2022-12-03T05:37:01.011Z,19.77
2022-12-03T05:39:30.591Z,21.92
2022-12-03T05:42:16.297Z,21.10
2022-12-03T05:44:44.330Z,18.98
2022-12-03T05:47:12.636Z,18.90
2022-12-03T05:49:40.988Z,21.45
2022-12-03T05:52:08.944Z,19.35
2022-12-03T05:54:38.731Z,21.17
2022-12-03T05:57:07.076Z,19.88
2022-12-03T05:59:35.329Z,23.85
2022-12-03T06:02:03.394Z,20.13
2022-12-03T06:04:31.497Z,23.35
2022-12-03T06:06:59.621Z,21.20
2022-12-03T06:09:27.756Z,21.88
2022-12-03T06:11:57.718Z,18.83
2022-12-03T06:14:25.731Z,21.58
2022-12-03T06:16:53.702Z,20.42
2022-12-03T06:19:21.831Z,20.48
2022-12-03T06:21:50.000Z,20.98
2022-12-03T06:24:18.384Z,20.58
2022-12-03T06:26:46.653Z,19.38
2022-12-03T06:29:17.195Z,21.52
2022-12-03T06:31:45.320Z,19.95
2022-12-03T06:34:13.716Z,21.15
2022-12-03T06:36:42.131Z,22.92
2022-12-03T06:39:10.400Z,20.10
2022-12-03T06:41:38.556Z,19.80
2022-12-03T06:44:06.941Z,23.48
2022-12-03T06:46:37.296Z,19.05
2022-12-03T06:49:05.827Z,21.40
2022-12-03T06:51:34.107Z,22.48
2022-12-03T06:54:02.720Z,20.38
2022-12-03T06:56:36.791Z,21.40
2022-12-03T06:59:07.377Z,22.65
2022-12-03T07:01:37.098Z,20.65
2022-12-03T07:04:05.652Z,22.00
2022-12-03T07:06:33.751Z,19.63
2022-12-03T07:09:02.036Z,24.13
2022-12-03T07:11:33.108Z,22.20
2022-12-03T07:14:05.446Z,21.45
2022-12-03T07:16:34.662Z,19.27
2022-12-03T07:19:05.389Z,22.35
2022-12-03T07:21:34.341Z,22.40
2022-12-03T07:24:02.855Z,21.92
2022-12-03T07:26:31.111Z,41.20
2022-12-03T07:28:59.289Z,23.90
2022-12-03T07:31:27.699Z,28.20
2022-12-03T07:33:56.474Z,29.70
2022-12-03T07:36:26.494Z,29.60
2022-12-03T07:38:55.038Z,32.13
2022-12-03T07:41:23.360Z,31.17
2022-12-03T07:43:51.618Z,25.10
2022-12-03T07:46:19.915Z,29.25
2022-12-03T07:48:48.430Z,26.80
2022-12-03T07:51:17.205Z,29.95
2022-12-03T07:53:46.768Z,25.77
2022-12-03T07:56:15.302Z,23.60
2022-12-03T07:58:43.703Z,24.85
2022-12-03T08:01:12.184Z,26.23
2022-12-03T08:03:42.867Z,27.30
2022-12-03T08:06:11.311Z,26.95
2022-12-03T08:08:39.462Z,23.70
2022-12-03T08:11:13.164Z,26.67
2022-12-03T08:13:41.999Z,27.42
2022-12-03T08:16:17.798Z,26.20
2022-12-03T08:18:47.191Z,25.88
2022-12-03T08:21:18.109Z,24.00
2022-12-03T08:23:46.950Z,24.95
2022-12-03T08:26:23.893Z,23.50
2022-12-03T08:28:53.219Z,24.42
2022-12-03T08:31:27.915Z,23.92
2022-12-03T08:34:19.984Z,25.42
2022-12-03T08:36:48.679Z,21.77
2022-12-03T08:39:33.345Z,26.65
2022-12-03T08:42:30.639Z,25.50
2022-12-03T08:45:19.475Z,24.55
2022-12-03T08:47:47.784Z,26.60
2022-12-03T08:50:28.586Z,27.95
2022-12-03T08:53:01.569Z,24.52
2022-12-03T08:55:36.554Z,25.10
2022-12-03T08:58:21.954Z,25.35
2022-12-03T09:00:59.541Z,25.80
2022-12-03T09:03:31.932Z,24.90
2022-12-03T09:06:00.319Z,26.90
2022-12-03T09:08:28.776Z,23.08
2022-12-03T09:10:57.069Z,24.83
2022-12-03T09:13:26.688Z,26.65
2022-12-03T09:15:55.025Z,24.55
2022-12-03T09:18:23.579Z,25.55
2022-12-03T09:20:51.904Z,22.80
2022-12-03T09:23:20.151Z,23.17
2022-12-03T09:25:48.355Z,24.38
2022-12-03T09:28:17.044Z,23.88
2022-12-03T09:30:46.869Z,25.35
2022-12-03T09:33:15.491Z,24.60
2022-12-03T09:35:43.773Z,23.70
2022-12-03T09:38:12.361Z,22.33
2022-12-03T09:40:42.658Z,23.38
2022-12-03T09:43:12.029Z,22.33
2022-12-03T09:45:40.468Z,24.55
2022-12-03T09:48:09.960Z,27.35
2022-12-03T09:50:41.686Z,23.63
2022-12-03T09:53:14.209Z,22.50
2022-12-03T09:55:45.263Z,26.10
2022-12-03T09:58:15.663Z,23.50
2022-12-03T10:00:46.961Z,26.83
2022-12-03T10:03:19.209Z,22.33
2022-12-03T10:05:48.477Z,24.92
2022-12-03T10:08:21.626Z,25.02
2022-12-03T10:10:54.205Z,27.25
2022-12-03T10:13:26.401Z,27.40
2022-12-03T10:15:56.472Z,28.42
2022-12-03T10:18:30.821Z,27.00
2022-12-03T10:20:59.706Z,27.23
2022-12-03T10:23:31.014Z,26.80
2022-12-03T10:26:01.737Z,28.58
2022-12-03T10:28:47.652Z,28.05
2022-12-03T10:31:16.468Z,27.38
2022-12-03T10:33:47.351Z,26.85
2022-12-03T10:36:23.447Z,25.45
2022-12-03T10:39:10.260Z,34.90
2022-12-03T10:41:39.239Z,26.15
2022-12-03T10:44:20.026Z,27.00
2022-12-03T10:47:06.904Z,25.95
2022-12-03T10:49:36.952Z,26.30
2022-12-03T10:52:06.310Z,28.73
2022-12-03T10:54:36.809Z,32.03
2022-12-03T10:57:05.155Z,29.17
2022-12-03T10:59:35.242Z,27.75
2022-12-03T11:02:05.163Z,29.48
2022-12-03T11:04:35.607Z,29.23
2022-12-03T11:07:15.406Z,26.30
2022-12-03T11:09:46.033Z,27.33
2022-12-03T11:12:20.549Z,26.38
2022-12-03T11:15:06.549Z,29.60
2022-12-03T11:17:45.955Z,25.10
2022-12-03T11:21:08.017Z,24.50
2022-12-03T11:24:18.908Z,31.42
2022-12-03T11:27:26.732Z,27.70
2022-12-03T11:30:02.789Z,31.35
2022-12-03T11:33:00.978Z,29.40
2022-12-03T11:35:37.824Z,29.30
2022-12-03T11:38:52.232Z,27.00
2022-12-03T11:41:25.017Z,28.02
2022-12-03T11:44:29.664Z,31.35
2022-12-03T11:47:09.594Z,29.75
2022-12-03T11:49:47.393Z,28.42
2022-12-03T11:52:25.715Z,28.75
2022-12-03T11:54:58.918Z,25.48
2022-12-03T11:57:31.699Z,27.50
2022-12-03T12:00:02.225Z,28.63
2022-12-03T12:02:40.110Z,27.88
2022-12-03T12:05:28.675Z,29.40
2022-12-03T12:07:57.567Z,30.95
2022-12-03T12:10:46.840Z,29.10
2022-12-03T12:13:50.143Z,29.08
2022-12-03T12:16:50.264Z,35.47
2022-12-03T12:19:43.008Z,35.42
2022-12-03T12:22:20.232Z,30.90
2022-12-03T12:24:51.977Z,47.60
2022-12-03T12:27:22.787Z,30.75
2022-12-03T12:29:57.471Z,39.58
2022-12-03T12:32:28.596Z,38.45
2022-12-03T12:35:01.224Z,31.10
2022-12-03T12:37:34.955Z,34.03
2022-12-03T12:40:11.864Z,32.38
2022-12-03T12:42:49.069Z,31.70
2022-12-03T12:45:22.759Z,30.55
2022-12-03T12:48:01.638Z,29.60
2022-12-03T12:50:32.022Z,29.48
2022-12-03T12:53:04.061Z,31.08
2022-12-03T12:55:32.532Z,34.47
2022-12-03T12:58:03.583Z,31.20
2022-12-03T13:00:33.302Z,34.00
2022-12-03T13:03:03.856Z,30.75
2022-12-03T13:05:39.807Z,33.35
2022-12-03T13:08:21.620Z,30.48
2022-12-03T13:10:51.033Z,33.60
2022-12-03T13:13:23.326Z,35.30
2022-12-03T13:16:00.781Z,31.55
2022-12-03T13:18:34.680Z,30.92
2022-12-03T13:21:14.606Z,31.33
2022-12-03T13:23:42.842Z,31.20
2022-12-03T13:26:34.523Z,29.63
2022-12-03T13:29:15.581Z,32.17
2022-12-03T13:31:50.223Z,30.30
2022-12-03T13:34:22.533Z,32.80
2022-12-03T13:36:57.701Z,29.77
2022-12-03T13:39:31.230Z,31.17
2022-12-03T13:42:24.751Z,28.85
2022-12-03T13:44:54.409Z,31.20
2022-12-03T13:47:25.087Z,34.15
2022-12-03T13:49:57.752Z,30.63
2022-12-03T13:52:26.964Z,30.35
2022-12-03T13:54:57.265Z,32.25
2022-12-03T13:57:25.911Z,35.88
2022-12-03T13:59:54.484Z,32.90
2022-12-03T14:02:24.621Z,34.70
2022-12-03T14:04:59.801Z,36.03
2022-12-03T14:07:28.937Z,34.10
2022-12-03T14:09:58.226Z,34.58
2022-12-03T14:12:26.769Z,37.25
2022-12-03T14:14:55.358Z,34.40
2022-12-03T14:17:25.204Z,35.35
2022-12-03T14:19:53.620Z,34.75
2022-12-03T14:22:25.331Z,35.78
2022-12-03T14:24:54.902Z,35.50
2022-12-03T14:27:25.402Z,33.30
2022-12-03T14:29:54.077Z,34.00
2022-12-03T14:32:22.550Z,36.15
2022-12-03T14:34:52.191Z,40.03
2022-12-03T14:37:20.733Z,34.80
2022-12-03T14:39:49.027Z,35.88
2022-12-03T14:42:18.327Z,37.25
2022-12-03T14:44:48.339Z,35.55
2022-12-03T14:47:18.577Z,38.42
2022-12-03T14:49:47.830Z,38.92
2022-12-03T14:52:17.756Z,36.80
2022-12-03T14:54:46.518Z,39.55
2022-12-03T14:57:16.484Z,35.53
2022-12-03T14:59:47.007Z,34.33
2022-12-03T15:02:15.781Z,37.20
2022-12-03T15:04:44.320Z,39.13
2022-12-03T15:07:12.671Z,37.53
2022-12-03T15:09:42.200Z,36.85
2022-12-03T15:12:10.652Z,35.35
2022-12-03T15:14:39.120Z,35.97
2022-12-03T15:17:07.610Z,35.78
2022-12-03T15:19:36.168Z,36.75
2022-12-03T15:22:04.580Z,34.47
2022-12-03T15:24:32.738Z,34.42
2022-12-03T15:27:02.467Z,34.00
2022-12-03T15:29:30.584Z,34.28
2022-12-03T15:32:01.010Z,31.00
2022-12-03T15:34:29.098Z,34.55
2022-12-03T15:36:57.114Z,36.80
2022-12-03T15:39:25.492Z,34.65
2022-12-03T15:41:53.556Z,38.63
2022-12-03T15:44:24.056Z,34.35
2022-12-03T15:46:52.161Z,33.13
2022-12-03T15:49:20.231Z,34.83
2022-12-03T15:51:48.549Z,35.63
2022-12-03T15:54:16.680Z,32.35
2022-12-03T15:56:44.916Z,34.13
2022-12-03T15:59:13.419Z,37.67
2022-12-03T16:01:43.129Z,35.03
2022-12-03T16:04:11.546Z,32.47
2022-12-03T16:06:39.627Z,38.92
2022-12-03T16:09:08.083Z,34.45
2022-12-03T16:11:36.121Z,36.53
2022-12-03T16:14:04.400Z,37.20
2022-12-03T16:16:32.785Z,37.22
2022-12-03T16:19:02.328Z,36.92
2022-12-03T16:21:30.408Z,36.38
2022-12-03T16:23:59.351Z,38.92
2022-12-03T16:26:27.839Z,33.97
2022-12-03T16:28:56.150Z,39.20
2022-12-03T16:31:25.170Z,37.38
2022-12-03T16:33:53.202Z,34.72
2022-12-03T16:36:22.585Z,35.90
2022-12-03T16:38:51.862Z,36.08
2022-12-03T16:41:20.219Z,37.97
2022-12-03T16:43:48.618Z,35.58
2022-12-03T16:46:26.362Z,35.38
2022-12-03T16:48:56.473Z,38.15
2022-12-03T16:51:30.312Z,35.10
2022-12-03T16:53:58.456Z,34.22
2022-12-03T16:56:26.417Z,33.10
2022-12-03T16:58:54.402Z,33.58
2022-12-03T17:01:23.441Z,38.50
2022-12-03T17:03:51.941Z,38.83
2022-12-03T17:06:20.180Z,35.58
2022-12-03T17:08:50.146Z,37.53
2022-12-03T17:11:18.859Z,37.42
2022-12-03T17:13:47.066Z,38.17
2022-12-03T17:16:15.414Z,36.75
2022-12-03T17:18:43.958Z,37.97
2022-12-03T17:21:12.028Z,35.92
2022-12-03T17:23:40.216Z,35.92
2022-12-03T17:26:09.624Z,35.30
2022-12-03T17:28:37.834Z,37.65
2022-12-03T17:31:06.272Z,38.15
2022-12-03T17:33:34.363Z,37.47
2022-12-03T17:36:02.819Z,37.85
2022-12-03T17:38:35.676Z,35.08
2022-12-03T17:41:09.083Z,37.72
2022-12-03T17:43:37.076Z,38.67
2022-12-03T17:46:06.698Z,38.53
2022-12-03T17:48:35.460Z,36.60
2022-12-03T17:51:03.920Z,36.75
2022-12-03T17:53:32.026Z,36.38
2022-12-03T17:56:00.217Z,37.15
2022-12-03T17:58:29.864Z,38.42
2022-12-03T18:01:02.473Z,42.10
2022-12-03T18:03:31.274Z,35.70
2022-12-03T18:05:59.352Z,42.25
2022-12-03T18:08:27.441Z,39.55
2022-12-03T18:10:55.510Z,40.13
2022-12-03T18:13:23.650Z,38.28
2022-12-03T18:15:53.305Z,40.17
2022-12-03T18:18:21.468Z,40.45
2022-12-03T18:20:49.615Z,36.53
2022-12-03T18:23:17.770Z,38.22
2022-12-03T18:25:46.002Z,37.17
2022-12-03T18:28:14.210Z,40.10
2022-12-03T18:30:43.323Z,40.40
2022-12-03T18:33:16.752Z,40.47
2022-12-03T18:35:45.340Z,37.50
2022-12-03T18:38:15.513Z,39.88
2022-12-03T18:40:44.704Z,38.65
2022-12-03T18:43:13.919Z,38.25
2022-12-03T18:45:42.835Z,41.78
2022-12-03T18:48:13.971Z,43.08
2022-12-03T18:50:44.948Z,38.78
2022-12-03T18:53:14.733Z,40.05
2022-12-03T18:55:44.454Z,42.28
2022-12-03T18:58:12.546Z,39.17
2022-12-03T19:00:41.186Z,42.90
2022-12-03T19:03:09.276Z,45.13
2022-12-03T19:05:37.626Z,42.45
2022-12-03T19:08:14.417Z,43.00
2022-12-03T19:10:43.101Z,43.45
2022-12-03T19:13:11.156Z,40.30
2022-12-03T19:15:39.846Z,43.88
2022-12-03T19:18:08.247Z,44.75
2022-12-03T19:20:36.353Z,38.35
2022-12-03T19:23:04.400Z,41.50
2022-12-03T19:25:34.157Z,41.35
2022-12-03T19:28:02.188Z,41.45
2022-12-03T19:30:30.623Z,41.40
2022-12-03T19:32:58.823Z,41.10
2022-12-03T19:35:26.879Z,40.78
2022-12-03T19:37:55.746Z,47.17
2022-12-03T19:40:23.866Z,41.63
2022-12-03T19:42:53.895Z,43.75
2022-12-03T19:45:21.948Z,43.83
2022-12-03T19:47:50.044Z,41.38
2022-12-03T19:50:22.908Z,45.17
2022-12-03T19:52:51.284Z,44.17
2022-12-03T19:55:20.515Z,43.63
2022-12-03T19:57:48.712Z,45.42
2022-12-03T20:00:19.834Z,47.35
2022-12-03T20:02:50.576Z,47.03
2022-12-03T20:05:18.899Z,45.38
2022-12-03T20:07:47.088Z,47.85
2022-12-03T20:10:15.211Z,43.90
2022-12-03T20:12:43.211Z,42.08
2022-12-03T20:15:12.820Z,44.45
2022-12-03T20:17:42.801Z,42.22
2022-12-03T20:20:11.655Z,43.45
2022-12-03T20:22:39.640Z,39.70
2022-12-03T20:25:08.523Z,38.78
2022-12-03T20:27:36.701Z,41.70
2022-12-03T20:30:05.727Z,41.05
2022-12-03T20:32:33.747Z,45.22
2022-12-03T20:35:04.424Z,41.72
2022-12-03T20:37:32.656Z,39.50
2022-12-03T20:40:00.730Z,43.80
2022-12-03T20:42:28.894Z,38.70
2022-12-03T20:44:57.149Z,43.92
2022-12-03T20:47:25.200Z,40.72
2022-12-03T20:49:53.439Z,44.10
2022-12-03T20:52:23.450Z,44.80
2022-12-03T20:54:51.459Z,38.53
2022-12-03T20:57:19.528Z,41.30
2022-12-03T20:59:47.586Z,43.42
2022-12-03T21:02:16.285Z,38.85
2022-12-03T21:04:44.489Z,41.47
2022-12-03T21:07:12.654Z,41.67
2022-12-03T21:09:42.608Z,40.55
2022-12-03T21:12:10.787Z,39.90
2022-12-03T21:14:38.859Z,41.15
2022-12-03T21:17:08.732Z,41.28
2022-12-03T21:19:38.006Z,45.38
2022-12-03T21:22:06.793Z,43.05
2022-12-03T21:24:35.326Z,45.58
2022-12-03T21:27:04.979Z,41.47
2022-12-03T21:29:33.121Z,41.47
2022-12-03T21:32:01.166Z,41.30
2022-12-03T21:34:35.790Z,42.95
2022-12-03T21:37:05.240Z,44.40
2022-12-03T21:39:33.338Z,44.92
2022-12-03T21:42:34.235Z,38.92
2022-12-03T21:44:52.019Z,44.22
2022-12-03T21:47:20.156Z,42.78
2022-12-03T21:49:48.665Z,43.28
2022-12-03T21:52:16.811Z,41.45
2022-12-03T21:54:44.890Z,40.10
2022-12-03T21:57:13.187Z,46.80
2022-12-03T21:59:41.264Z,45.72
2022-12-03T22:02:12.412Z,45.55
2022-12-03T22:04:40.918Z,44.30
2022-12-03T22:07:08.890Z,43.42
2022-12-03T22:09:37.179Z,45.30
2022-12-03T22:12:05.600Z,45.65
2022-12-03T22:14:33.722Z,46.15
2022-12-03T22:17:01.757Z,42.50
2022-12-03T22:19:31.510Z,46.83
2022-12-03T22:21:59.738Z,42.20
2022-12-03T22:24:27.779Z,49.40
2022-12-03T22:26:55.928Z,51.08
2022-12-03T22:29:24.009Z,43.67
2022-12-03T22:31:52.613Z,46.38
2022-12-03T22:34:20.732Z,47.60
2022-12-03T22:36:50.239Z,41.85
2022-12-03T22:39:18.372Z,41.22
2022-12-03T22:41:46.482Z,41.22
2022-12-03T22:44:14.689Z,44.00
2022-12-03T22:46:43.046Z,43.67
2022-12-03T22:49:13.334Z,41.55
2022-12-03T22:51:41.292Z,42.60
2022-12-03T22:54:11.646Z,45.72
2022-12-03T22:56:39.852Z,44.95
2022-12-03T22:59:08.868Z,44.00
2022-12-03T23:01:38.746Z,43.22
2022-12-03T23:04:08.337Z,44.45
2022-12-03T23:06:37.566Z,43.75
2022-12-03T23:09:07.018Z,45.88
2022-12-03T23:11:37.090Z,46.33
2022-12-03T23:14:05.508Z,43.38
2022-12-03T23:16:34.378Z,46.08
2022-12-03T23:19:04.080Z,44.97
2022-12-03T23:21:35.337Z,45.58
2022-12-03T23:24:05.452Z,44.58
2022-12-03T23:26:37.524Z,45.78
2022-12-03T23:29:08.457Z,42.90
2022-12-03T23:31:37.407Z,45.25
2022-12-03T23:34:05.971Z,41.00
2022-12-03T23:36:34.771Z,41.75
2022-12-03T23:39:02.874Z,41.90
2022-12-03T23:41:30.928Z,42.75
2022-12-03T23:44:00.315Z,42.67
2022-12-03T23:46:29.156Z,43.40
2022-12-03T23:48:59.519Z,42.38
2022-12-03T23:51:28.114Z,42.63
2022-12-03T23:53:56.645Z,42.75
2022-12-03T23:56:27.573Z,44.28
2022-12-03T23:58:56.403Z,39.72
